sensor_id;sensor_type;location;lat;lon;timestamp;pressure;altitude;pressure_sealevel;temperature;humidity
69221;BME280;56331;51.992;20.910;2023-02-02T00:01:57;98915.21;;;21.66;35.32
69221;BME280;56331;51.992;20.910;2023-02-02T00:04:26;98913.03;;;21.65;35.39
69221;BME280;56331;51.992;20.910;2023-02-02T00:06:53;98916.99;;;21.64;35.25
69221;BME280;56331;51.992;20.910;2023-02-02T00:09:20;98911.45;;;21.64;35.34
69221;BME280;56331;51.992;20.910;2023-02-02T00:11:47;98908.67;;;21.64;35.34
69221;BME280;56331;51.992;20.910;2023-02-02T00:14:17;98901.52;;;21.63;35.31
69221;BME280;56331;51.992;20.910;2023-02-02T00:16:48;98891.98;;;21.60;35.21
69221;BME280;56331;51.992;20.910;2023-02-02T00:19:16;98900.12;;;21.63;35.34
69221;BME280;56331;51.992;20.910;2023-02-02T00:21:43;98898.75;;;21.63;35.29
69221;BME280;56331;51.992;20.910;2023-02-02T00:24:12;98901.52;;;21.63;35.29
69221;BME280;56331;51.992;20.910;2023-02-02T00:26:40;98902.47;;;21.61;35.26
69221;BME280;56331;51.992;20.910;2023-02-02T00:29:09;98898.55;;;21.62;35.32
69221;BME280;56331;51.992;20.910;2023-02-02T00:31:35;98893.36;;;21.60;35.27
69221;BME280;56331;51.992;20.910;2023-02-02T00:34:02;98892.57;;;21.60;35.28
69221;BME280;56331;51.992;20.910;2023-02-02T00:36:28;98883.47;;;21.59;35.38
69221;BME280;56331;51.992;20.910;2023-02-02T00:38:55;98891.78;;;21.59;35.36
69221;BME280;56331;51.992;20.910;2023-02-02T00:41:21;98888.78;;;21.58;35.27
69221;BME280;56331;51.992;20.910;2023-02-02T00:43:48;98896.30;;;21.58;35.36
69221;BME280;56331;51.992;20.910;2023-02-02T00:46:17;98890.75;;;21.58;35.29
69221;BME280;56331;51.992;20.910;2023-02-02T00:48:43;98896.30;;;21.58;35.36
69221;BME280;56331;51.992;20.910;2023-02-02T00:51:10;98892.73;;;21.57;35.27
69221;BME280;56331;51.992;20.910;2023-02-02T00:53:36;98891.55;;;21.58;35.27
69221;BME280;56331;51.992;20.910;2023-02-02T00:56:03;98897.69;;;21.58;35.27
69221;BME280;56331;51.992;20.910;2023-02-02T00:58:30;98893.92;;;21.56;35.22
69221;BME280;56331;51.992;20.910;2023-02-02T01:00:57;98889.77;;;21.56;35.31
69221;BME280;56331;51.992;20.910;2023-02-02T01:03:24;98882.02;;;21.56;35.25
69221;BME280;56331;51.992;20.910;2023-02-02T01:05:50;98882.60;;;21.55;35.30
69221;BME280;56331;51.992;20.910;2023-02-02T01:08:17;98882.41;;;21.54;35.19
69221;BME280;56331;51.992;20.910;2023-02-02T01:10:43;98880.42;;;21.55;35.23
69221;BME280;56331;51.992;20.910;2023-02-02T01:13:10;98879.23;;;21.56;35.31
69221;BME280;56331;51.992;20.910;2023-02-02T01:15:36;98881.22;;;21.55;35.25
69221;BME280;56331;51.992;20.910;2023-02-02T01:18:03;98877.86;;;21.56;35.23
69221;BME280;56331;51.992;20.910;2023-02-02T01:20:29;98877.66;;;21.55;35.23
69221;BME280;56331;51.992;20.910;2023-02-02T01:22:56;98874.30;;;21.55;35.28
69221;BME280;56331;51.992;20.910;2023-02-02T01:25:23;98870.73;;;21.55;35.22
69221;BME280;56331;51.992;20.910;2023-02-02T01:27:50;98878.25;;;21.54;35.25
69221;BME280;56331;51.992;20.910;2023-02-02T01:30:16;98873.06;;;21.53;35.26
69221;BME280;56331;51.992;20.910;2023-02-02T01:32:42;98871.09;;;21.53;35.23
69221;BME280;56331;51.992;20.910;2023-02-02T01:35:09;98870.53;;;21.54;35.30
69221;BME280;56331;51.992;20.910;2023-02-02T01:37:35;98874.69;;;21.54;35.24
69221;BME280;56331;51.992;20.910;2023-02-02T01:40:05;98876.43;;;21.52;35.26
69221;BME280;56331;51.992;20.910;2023-02-02T01:42:31;98866.53;;;21.51;35.20
69221;BME280;56331;51.992;20.910;2023-02-02T01:45:04;98870.09;;;21.52;35.19
69221;BME280;56331;51.992;20.910;2023-02-02T01:47:37;98880.98;;;21.51;35.20
69221;BME280;56331;51.992;20.910;2023-02-02T01:50:05;98872.66;;;21.51;35.17
69221;BME280;56331;51.992;20.910;2023-02-02T01:52:33;98875.80;;;21.49;35.23
69221;BME280;56331;51.992;20.910;2023-02-02T01:55:07;98880.16;;;21.50;35.13
69221;BME280;56331;51.992;20.910;2023-02-02T01:57:39;98878.20;;;21.51;35.24
69221;BME280;56331;51.992;20.910;2023-02-02T02:00:09;98869.66;;;21.50;35.21
69221;BME280;56331;51.992;20.910;2023-02-02T02:02:38;98876.39;;;21.49;35.13
69221;BME280;56331;51.992;20.910;2023-02-02T02:05:06;98878.77;;;21.50;35.18
69221;BME280;56331;51.992;20.910;2023-02-02T02:07:33;98878.77;;;21.50;35.19
69221;BME280;56331;51.992;20.910;2023-02-02T02:10:04;98879.95;;;21.49;35.10
69221;BME280;56331;51.992;20.910;2023-02-02T02:12:31;98875.80;;;21.49;35.10
69221;BME280;56331;51.992;20.910;2023-02-02T02:14:58;98886.68;;;21.48;35.11
69221;BME280;56331;51.992;20.910;2023-02-02T02:17:52;98887.47;;;21.49;35.11
69221;BME280;56331;51.992;20.910;2023-02-02T02:23:56;98885.06;;;21.47;35.09
69221;BME280;56331;51.992;20.910;2023-02-02T02:30:01;98887.04;;;21.47;35.18
69221;BME280;56331;51.992;20.910;2023-02-02T02:35:05;98879.09;;;21.45;35.08
69221;BME280;56331;51.992;20.910;2023-02-02T02:42:43;98883.84;;;21.45;35.08
69221;BME280;56331;51.992;20.910;2023-02-02T02:45:11;98878.30;;;21.45;35.08
69221;BME280;56331;51.992;20.910;2023-02-02T02:47:40;98883.25;;;21.45;35.08
69221;BME280;56331;51.992;20.910;2023-02-02T02:50:07;98887.99;;;21.45;35.12
69221;BME280;56331;51.992;20.910;2023-02-02T02:52:35;98881.66;;;21.44;35.04
69221;BME280;56331;51.992;20.910;2023-02-02T02:55:04;98888.78;;;21.45;35.07
69221;BME280;56331;51.992;20.910;2023-02-02T03:06:13;98885.22;;;21.45;34.89
69221;BME280;56331;51.992;20.910;2023-02-02T03:09:04;98889.61;;;21.46;34.67
69221;BME280;56331;51.992;20.910;2023-02-02T03:11:12;98890.61;;;21.47;34.55
69221;BME280;56331;51.992;20.910;2023-02-02T03:13:41;98891.20;;;21.47;34.42
69221;BME280;56331;51.992;20.910;2023-02-02T03:16:09;98892.22;;;21.48;34.35
69221;BME280;56331;51.992;20.910;2023-02-02T03:18:36;98891.83;;;21.50;34.24
69221;BME280;56331;51.992;20.910;2023-02-02T03:21:03;98891.62;;;21.49;34.19
69221;BME280;56331;51.992;20.910;2023-02-02T03:23:30;98891.83;;;21.50;34.11
69221;BME280;56331;51.992;20.910;2023-02-02T03:25:56;98908.30;;;21.52;34.04
69221;BME280;56331;51.992;20.910;2023-02-02T03:28:24;98907.70;;;21.53;33.87
69221;BME280;56331;51.992;20.910;2023-02-02T03:30:52;98901.95;;;21.52;33.85
69221;BME280;56331;51.992;20.910;2023-02-02T03:33:21;98901.76;;;21.51;33.79
69221;BME280;56331;51.992;20.910;2023-02-02T03:35:50;98899.55;;;21.50;33.74
69221;BME280;56331;51.992;20.910;2023-02-02T03:38:17;98909.67;;;21.52;33.72
69221;BME280;56331;51.992;20.910;2023-02-02T03:40:43;98909.67;;;21.52;33.70
69221;BME280;56331;51.992;20.910;2023-02-02T03:43:10;98908.89;;;21.52;33.63
69221;BME280;56331;51.992;20.910;2023-02-02T03:45:37;98906.11;;;21.52;33.59
69221;BME280;56331;51.992;20.910;2023-02-02T03:48:05;98911.66;;;21.52;33.51
69221;BME280;56331;51.992;20.910;2023-02-02T03:50:32;98901.76;;;21.51;33.41
69221;BME280;56331;51.992;20.910;2023-02-02T03:52:59;98906.48;;;21.50;33.39
69221;BME280;56331;51.992;20.910;2023-02-02T03:55:25;98905.69;;;21.50;33.31
69221;BME280;56331;51.992;20.910;2023-02-02T03:57:52;98903.34;;;21.52;33.33
69221;BME280;56331;51.992;20.910;2023-02-02T04:00:19;98907.70;;;21.53;33.24
69221;BME280;56331;51.992;20.910;2023-02-02T04:02:46;98900.94;;;21.50;33.20
69221;BME280;56331;51.992;20.910;2023-02-02T04:05:12;98898.16;;;21.50;33.37
69221;BME280;56331;51.992;20.910;2023-02-02T04:07:39;98901.92;;;21.48;33.65
69221;BME280;56331;51.992;20.910;2023-02-02T04:10:06;98901.92;;;21.48;33.68
69221;BME280;56331;51.992;20.910;2023-02-02T04:12:33;98901.69;;;21.47;33.71
69221;BME280;56331;51.992;20.910;2023-02-02T04:15:01;98907.02;;;21.46;33.82
69221;BME280;56331;51.992;20.910;2023-02-02T04:17:28;98902.64;;;21.45;33.88
69221;BME280;56331;51.992;20.910;2023-02-02T04:19:54;98894.48;;;21.43;33.89
69221;BME280;56331;51.992;20.910;2023-02-02T04:22:23;98897.48;;;21.44;33.98
69221;BME280;56331;51.992;20.910;2023-02-02T04:24:49;98897.05;;;21.41;33.83
69221;BME280;56331;51.992;20.910;2023-02-02T04:27:16;98898.08;;;21.43;33.89
69221;BME280;56331;51.992;20.910;2023-02-02T04:29:43;98896.46;;;21.42;33.92
69221;BME280;56331;51.992;20.910;2023-02-02T04:32:10;98893.48;;;21.41;33.98
69221;BME280;56331;51.992;20.910;2023-02-02T04:34:37;98904.77;;;21.42;34.01
69221;BME280;56331;51.992;20.910;2023-02-02T04:37:03;98903.39;;;21.42;34.02
69221;BME280;56331;51.992;20.910;2023-02-02T04:39:30;98908.93;;;21.42;33.96
69221;BME280;56331;51.992;20.910;2023-02-02T04:41:56;98908.34;;;21.43;34.00
69221;BME280;56331;51.992;20.910;2023-02-02T04:44:23;98902.59;;;21.41;33.92
69221;BME280;56331;51.992;20.910;2023-02-02T04:46:49;98909.31;;;21.40;33.86
69221;BME280;56331;51.992;20.910;2023-02-02T04:49:15;98907.11;;;21.40;33.90
69221;BME280;56331;51.992;20.910;2023-02-02T04:51:42;98908.50;;;21.40;33.93
69221;BME280;56331;51.992;20.910;2023-02-02T04:54:08;98912.45;;;21.39;33.95
69221;BME280;56331;51.992;20.910;2023-02-02T04:56:35;98913.24;;;21.39;33.99
69221;BME280;56331;51.992;20.910;2023-02-02T04:59:02;98910.70;;;21.40;34.02
69221;BME280;56331;51.992;20.910;2023-02-02T05:01:29;98913.83;;;21.39;34.03
69221;BME280;56331;51.992;20.910;2023-02-02T05:03:56;98914.03;;;21.40;34.05
69221;BME280;56331;51.992;20.910;2023-02-02T05:06:25;98912.09;;;21.40;34.04
69221;BME280;56331;51.992;20.910;2023-02-02T05:08:51;98914.62;;;21.39;34.04
69221;BME280;56331;51.992;20.910;2023-02-02T05:11:22;98906.55;;;21.40;34.03
69221;BME280;56331;51.992;20.910;2023-02-02T05:13:51;98914.03;;;21.40;34.05
69221;BME280;56331;51.992;20.910;2023-02-02T05:16:18;98901.96;;;21.38;34.03
69221;BME280;56331;51.992;20.910;2023-02-02T05:18:53;98911.06;;;21.39;34.06
69221;BME280;56331;51.992;20.910;2023-02-02T05:21:21;98906.32;;;21.39;34.10
69221;BME280;56331;51.992;20.910;2023-02-02T05:23:48;98906.32;;;21.39;34.11
69221;BME280;56331;51.992;20.910;2023-02-02T05:26:17;98899.98;;;21.39;34.23
69221;BME280;56331;51.992;20.910;2023-02-02T05:28:44;98896.42;;;21.38;34.22
69221;BME280;56331;51.992;20.910;2023-02-02T05:31:10;98908.30;;;21.39;34.28
69221;BME280;56331;51.992;20.910;2023-02-02T05:33:37;98899.78;;;21.38;34.27
69221;BME280;56331;51.992;20.910;2023-02-02T05:36:04;98897.80;;;21.38;34.30
69221;BME280;56331;51.992;20.910;2023-02-02T05:38:31;98895.03;;;21.38;34.48
69221;BME280;56331;51.992;20.910;2023-02-02T05:40:57;98890.88;;;21.38;34.59
69221;BME280;56331;51.992;20.910;2023-02-02T05:43:26;98893.39;;;21.37;34.50
69221;BME280;56331;51.992;20.910;2023-02-02T05:45:52;98892.86;;;21.38;34.62
69221;BME280;56331;51.992;20.910;2023-02-02T05:48:19;98890.62;;;21.37;34.73
69221;BME280;56331;51.992;20.910;2023-02-02T05:51:11;98888.70;;;21.38;34.80
69221;BME280;56331;51.992;20.910;2023-02-02T05:53:38;98885.08;;;21.37;34.90
69221;BME280;56331;51.992;20.910;2023-02-02T05:56:05;98892.39;;;21.36;34.94
69221;BME280;56331;51.992;20.910;2023-02-02T05:58:32;98900.91;;;21.37;35.02
69221;BME280;56331;51.992;20.910;2023-02-02T06:00:58;98895.16;;;21.36;35.08
69221;BME280;56331;51.992;20.910;2023-02-02T06:03:25;98899.09;;;21.35;35.13
69221;BME280;56331;51.992;20.910;2023-02-02T06:05:51;98892.75;;;21.34;34.91
69221;BME280;56331;51.992;20.910;2023-02-02T06:08:18;98896.55;;;21.36;34.67
69221;BME280;56331;51.992;20.910;2023-02-02T06:10:44;98894.77;;;21.37;34.57
69221;BME280;56331;51.992;20.910;2023-02-02T06:13:11;98898.40;;;21.38;34.57
69221;BME280;56331;51.992;20.910;2023-02-02T06:15:37;98898.59;;;21.39;34.59
69221;BME280;56331;51.992;20.910;2023-02-02T06:18:04;98897.80;;;21.38;34.62
69221;BME280;56331;51.992;20.910;2023-02-02T06:20:33;98897.41;;;21.40;34.68
69221;BME280;56331;51.992;20.910;2023-02-02T06:22:59;98895.23;;;21.39;34.76
69221;BME280;56331;51.992;20.910;2023-02-02T06:25:26;98901.01;;;21.40;34.87
69221;BME280;56331;51.992;20.910;2023-02-02T06:27:57;98904.34;;;21.40;34.98
69221;BME280;56331;51.992;20.910;2023-02-02T06:30:27;98896.85;;;21.40;35.12
69221;BME280;56331;51.992;20.910;2023-02-02T06:32:58;98899.62;;;21.40;35.17
69221;BME280;56331;51.992;20.910;2023-02-02T06:35:22;98898.59;;;21.39;35.16
69221;BME280;56331;51.992;20.910;2023-02-02T06:37:48;98894.64;;;21.40;35.23
69221;BME280;56331;51.992;20.910;2023-02-02T06:40:15;98893.85;;;21.39;35.25
69221;BME280;56331;51.992;20.910;2023-02-02T06:42:42;98889.11;;;21.40;35.19
69221;BME280;56331;51.992;20.910;2023-02-02T06:45:10;98891.08;;;21.39;35.13
69221;BME280;56331;51.992;20.910;2023-02-02T06:47:37;98896.03;;;21.40;35.16
69221;BME280;56331;51.992;20.910;2023-02-02T06:50:05;98889.92;;;21.40;35.22
69221;BME280;56331;51.992;20.910;2023-02-02T06:52:33;98884.39;;;21.40;35.23
69221;BME280;56331;51.992;20.910;2023-02-02T06:55:00;98878.84;;;21.40;35.51
69221;BME280;56331;51.992;20.910;2023-02-02T06:57:26;98881.62;;;21.40;35.63
69221;BME280;56331;51.992;20.910;2023-02-02T06:59:52;98877.46;;;21.40;36.01
69221;BME280;56331;51.992;20.910;2023-02-02T07:02:19;98877.46;;;21.40;36.09
69221;BME280;56331;51.992;20.910;2023-02-02T07:04:45;98874.69;;;21.40;35.96
69221;BME280;56331;51.992;20.910;2023-02-02T07:07:11;98874.69;;;21.40;35.95
69221;BME280;56331;51.992;20.910;2023-02-02T07:09:39;98876.28;;;21.41;35.84
69221;BME280;56331;51.992;20.910;2023-02-02T07:12:05;98872.33;;;21.43;35.69
69221;BME280;56331;51.992;20.910;2023-02-02T07:14:35;98867.38;;;21.42;35.47
69221;BME280;56331;51.992;20.910;2023-02-02T07:17:01;98870.14;;;21.42;35.35
69221;BME280;56331;51.992;20.910;2023-02-02T07:19:30;98872.72;;;21.41;35.30
69221;BME280;56331;51.992;20.910;2023-02-02T07:21:56;98868.77;;;21.42;35.29
69221;BME280;56331;51.992;20.910;2023-02-02T07:24:23;98867.38;;;21.42;35.23
69221;BME280;56331;51.992;20.910;2023-02-02T07:26:49;98867.38;;;21.42;35.20
69221;BME280;56331;51.992;20.910;2023-02-02T07:29:16;98861.24;;;21.43;35.21
69221;BME280;56331;51.992;20.910;2023-02-02T07:31:43;98864.61;;;21.42;35.16
69221;BME280;56331;51.992;20.910;2023-02-02T07:34:09;98866.58;;;21.41;35.10
69221;BME280;56331;51.992;20.910;2023-02-02T07:36:36;98864.61;;;21.42;35.07
69221;BME280;56331;51.992;20.910;2023-02-02T07:39:04;98863.02;;;21.41;34.98
69221;BME280;56331;51.992;20.910;2023-02-02T07:41:32;98863.02;;;21.41;34.94
69221;BME280;56331;51.992;20.910;2023-02-02T07:43:59;98863.81;;;21.41;34.82
69221;BME280;56331;51.992;20.910;2023-02-02T07:46:26;98861.04;;;21.41;34.75
69221;BME280;56331;51.992;20.910;2023-02-02T07:48:54;98862.23;;;21.40;34.62
69221;BME280;56331;51.992;20.910;2023-02-02T07:51:22;98860.84;;;21.40;34.49
69221;BME280;56331;51.992;20.910;2023-02-02T07:53:50;98863.61;;;21.40;34.42
69221;BME280;56331;51.992;20.910;2023-02-02T07:56:23;98862.42;;;21.41;34.41
69221;BME280;56331;51.992;20.910;2023-02-02T07:58:51;98859.66;;;21.41;34.35
69221;BME280;56331;51.992;20.910;2023-02-02T08:01:18;98863.81;;;21.41;34.25
69221;BME280;56331;51.992;20.910;2023-02-02T08:03:48;98860.84;;;21.40;34.22
69221;BME280;56331;51.992;20.910;2023-02-02T08:06:20;98859.81;;;21.39;34.53
69221;BME280;56331;51.992;20.910;2023-02-02T08:08:48;98861.80;;;21.38;34.66
69221;BME280;56331;51.992;20.910;2023-02-02T08:11:17;98868.45;;;21.37;34.83
69221;BME280;56331;51.992;20.910;2023-02-02T08:13:47;98862.12;;;21.37;34.91
69221;BME280;56331;51.992;20.910;2023-02-02T08:16:13;98863.31;;;21.36;35.18
69221;BME280;56331;51.992;20.910;2023-02-02T08:18:39;98865.28;;;21.35;35.21
69221;BME280;56331;51.992;20.910;2023-02-02T08:21:07;98858.92;;;21.35;35.43
69221;BME280;56331;51.992;20.910;2023-02-02T08:23:34;98865.84;;;21.35;35.57
69221;BME280;56331;51.992;20.910;2023-02-02T08:26:07;98865.84;;;21.35;35.67
69221;BME280;56331;51.992;20.910;2023-02-02T08:28:34;98852.59;;;21.34;35.77
69221;BME280;56331;51.992;20.910;2023-02-02T08:31:06;98859.31;;;21.33;35.91
69221;BME280;56331;51.992;20.910;2023-02-02T08:33:33;98857.34;;;21.34;35.93
69221;BME280;56331;51.992;20.910;2023-02-02T08:35:59;98853.77;;;21.33;35.92
69221;BME280;56331;51.992;20.910;2023-02-02T08:38:26;98862.67;;;21.33;36.04
69221;BME280;56331;51.992;20.910;2023-02-02T08:40:56;98866.23;;;21.33;36.24
69221;BME280;56331;51.992;20.910;2023-02-02T08:43:25;98867.63;;;21.33;36.32
69221;BME280;56331;51.992;20.910;2023-02-02T08:45:51;98869.59;;;21.33;36.25
69221;BME280;56331;51.992;20.910;2023-02-02T08:48:18;98868.41;;;21.34;36.37
69221;BME280;56331;51.992;20.910;2023-02-02T08:50:55;98875.94;;;21.33;36.38
69221;BME280;56331;51.992;20.910;2023-02-02T08:53:19;98872.93;;;21.32;36.38
69221;BME280;56331;51.992;20.910;2023-02-02T08:55:45;98878.11;;;21.34;36.41
69221;BME280;56331;51.992;20.910;2023-02-02T08:58:15;98880.09;;;21.33;36.50
69221;BME280;56331;51.992;20.910;2023-02-02T09:00:41;98882.06;;;21.33;36.42
69221;BME280;56331;51.992;20.910;2023-02-02T09:03:08;98881.47;;;21.33;36.45
69221;BME280;56331;51.992;20.910;2023-02-02T09:05:35;98877.31;;;21.33;36.48
69221;BME280;56331;51.992;20.910;2023-02-02T09:08:03;98874.55;;;21.33;36.48
69221;BME280;56331;51.992;20.910;2023-02-02T09:10:30;98875.94;;;21.33;36.54
69221;BME280;56331;51.992;20.910;2023-02-02T09:12:57;98882.27;;;21.34;36.53
69221;BME280;56331;51.992;20.910;2023-02-02T09:15:23;98884.44;;;21.34;36.50
69221;BME280;56331;51.992;20.910;2023-02-02T09:17:51;98877.52;;;21.34;36.60
69221;BME280;56331;51.992;20.910;2023-02-02T09:20:17;98878.70;;;21.33;36.57
69221;BME280;56331;51.992;20.910;2023-02-02T09:22:45;98885.03;;;21.34;36.61
69221;BME280;56331;51.992;20.910;2023-02-02T09:25:12;98882.86;;;21.33;36.64
69221;BME280;56331;51.992;20.910;2023-02-02T09:27:39;98888.98;;;21.33;36.67
69221;BME280;56331;51.992;20.910;2023-02-02T09:30:08;98891.17;;;21.33;36.92
69221;BME280;56331;51.992;20.910;2023-02-02T09:32:34;98891.95;;;21.34;36.97
69221;BME280;56331;51.992;20.910;2023-02-02T09:35:01;98898.30;;;21.34;36.60
69221;BME280;56331;51.992;20.910;2023-02-02T09:37:27;98900.47;;;21.35;36.27
69221;BME280;56331;51.992;20.910;2023-02-02T09:39:54;98903.67;;;21.37;35.87
69221;BME280;56331;51.992;20.910;2023-02-02T09:45:34;98907.62;;;21.36;35.16
69221;BME280;56331;51.992;20.910;2023-02-02T09:48:10;98909.02;;;21.36;34.79
69221;BME280;56331;51.992;20.910;2023-02-02T09:55:51;98918.48;;;21.35;33.92
69221;BME280;56331;51.992;20.910;2023-02-02T09:58:27;98922.86;;;21.36;33.68
69221;BME280;56331;51.992;20.910;2023-02-02T10:01:19;98926.23;;;21.35;33.50
69221;BME280;56331;51.992;20.910;2023-02-02T10:08:56;98941.03;;;21.33;33.53
69221;BME280;56331;51.992;20.910;2023-02-02T10:11:42;98940.00;;;21.32;33.59
69221;BME280;56331;51.992;20.910;2023-02-02T10:16:56;98947.08;;;21.29;33.63
69221;BME280;56331;51.992;20.910;2023-02-02T10:19:25;98953.80;;;21.28;33.62
69221;BME280;56331;51.992;20.910;2023-02-02T10:24:32;98961.08;;;21.27;33.76
69221;BME280;56331;51.992;20.910;2023-02-02T10:27:04;98966.03;;;21.27;33.70
69221;BME280;56331;51.992;20.910;2023-02-02T10:32:46;98976.91;;;21.26;33.71
69221;BME280;56331;51.992;20.910;2023-02-02T10:35:33;98980.27;;;21.26;33.72
69221;BME280;56331;51.992;20.910;2023-02-02T10:38:14;98978.88;;;21.26;33.74
69221;BME280;56331;51.992;20.910;2023-02-02T10:46:22;99000.81;;;21.25;33.78
69221;BME280;56331;51.992;20.910;2023-02-02T10:48:50;98999.42;;;21.25;33.71
69221;BME280;56331;51.992;20.910;2023-02-02T10:51:26;99006.94;;;21.24;33.76
69221;BME280;56331;51.992;20.910;2023-02-02T10:53:55;99008.32;;;21.24;33.76
69221;BME280;56331;51.992;20.910;2023-02-02T10:56:25;99006.73;;;21.23;33.79
69221;BME280;56331;51.992;20.910;2023-02-02T11:01:22;99014.84;;;21.22;33.78
69221;BME280;56331;51.992;20.910;2023-02-02T11:03:49;99023.94;;;21.23;33.77
69221;BME280;56331;51.992;20.910;2023-02-02T11:06:20;99021.77;;;21.22;33.78
69221;BME280;56331;51.992;20.910;2023-02-02T11:09:07;99025.91;;;21.22;33.73
69221;BME280;56331;51.992;20.910;2023-02-02T11:11:40;99033.64;;;21.23;33.79
69221;BME280;56331;51.992;20.910;2023-02-02T11:14:11;99040.56;;;21.23;33.75
69221;BME280;56331;51.992;20.910;2023-02-02T11:16:39;99041.15;;;21.22;33.73
69221;BME280;56331;51.992;20.910;2023-02-02T11:21:46;99049.66;;;21.23;33.76
69221;BME280;56331;51.992;20.910;2023-02-02T11:26:59;99063.86;;;21.22;33.76
69221;BME280;56331;51.992;20.910;2023-02-02T11:29:40;99073.00;;;21.22;33.75
69221;BME280;56331;51.992;20.910;2023-02-02T11:32:29;99065.48;;;21.23;33.73
69221;BME280;56331;51.992;20.910;2023-02-02T11:37:51;99078.54;;;21.22;33.71
69221;BME280;56331;51.992;20.910;2023-02-02T11:42:46;99086.84;;;21.22;33.78
69221;BME280;56331;51.992;20.910;2023-02-02T11:45:18;99087.64;;;21.23;33.73
69221;BME280;56331;51.992;20.910;2023-02-02T11:47:45;99095.36;;;21.23;33.73
69221;BME280;56331;51.992;20.910;2023-02-02T11:50:29;99097.10;;;21.22;33.66
69221;BME280;56331;51.992;20.910;2023-02-02T11:52:57;99097.69;;;21.21;33.63
69221;BME280;56331;51.992;20.910;2023-02-02T11:55:29;99102.64;;;21.22;33.67
69221;BME280;56331;51.992;20.910;2023-02-02T11:58:17;99100.70;;;21.22;33.67
69221;BME280;56331;51.992;20.910;2023-02-02T12:00:48;99105.64;;;21.23;33.62
69221;BME280;56331;51.992;20.910;2023-02-02T12:05:55;99113.57;;;21.24;33.44
69221;BME280;56331;51.992;20.910;2023-02-02T12:08:23;99119.91;;;21.25;33.28
69221;BME280;56331;51.992;20.910;2023-02-02T12:11:00;99126.48;;;21.26;33.19
69221;BME280;56331;51.992;20.910;2023-02-02T12:16:35;99132.66;;;21.29;33.09
69221;BME280;56331;51.992;20.910;2023-02-02T12:19:23;99132.66;;;21.29;33.09
69221;BME280;56331;51.992;20.910;2023-02-02T12:21:55;99136.23;;;21.30;32.79
69221;BME280;56331;51.992;20.910;2023-02-02T12:24:29;99141.20;;;21.30;32.69
69221;BME280;56331;51.992;20.910;2023-02-02T12:29:41;99147.55;;;21.31;32.56
69221;BME280;56331;51.992;20.910;2023-02-02T12:32:40;99152.84;;;21.30;32.49
69221;BME280;56331;51.992;20.910;2023-02-02T12:35:27;99165.75;;;21.32;32.56
69221;BME280;56331;51.992;20.910;2023-02-02T12:38:08;99165.11;;;21.29;32.76
69221;BME280;56331;51.992;20.910;2023-02-02T12:40:55;99174.59;;;21.28;32.85
69221;BME280;56331;51.992;20.910;2023-02-02T12:43:29;99180.93;;;21.28;32.87
69221;BME280;56331;51.992;20.910;2023-02-02T12:52:24;99196.90;;;21.25;32.83
69221;BME280;56331;51.992;20.910;2023-02-02T12:57:22;99202.58;;;21.23;32.85
69221;BME280;56331;51.992;20.910;2023-02-02T13:00:18;99207.53;;;21.23;32.85
69221;BME280;56331;51.992;20.910;2023-02-02T13:08:11;99216.34;;;21.19;32.86
69221;BME280;56331;51.992;20.910;2023-02-02T13:10:50;99230.42;;;21.20;32.88
69221;BME280;56331;51.992;20.910;2023-02-02T13:13:23;99237.34;;;21.20;32.90
69221;BME280;56331;51.992;20.910;2023-02-02T13:15:51;99249.02;;;21.19;32.95
69221;BME280;56331;51.992;20.910;2023-02-02T13:18:25;99253.52;;;21.18;32.95
69221;BME280;56331;51.992;20.910;2023-02-02T13:21:04;99268.75;;;21.18;32.98
69221;BME280;56331;51.992;20.910;2023-02-02T13:23:36;99280.62;;;21.18;32.88
69221;BME280;56331;51.992;20.910;2023-02-02T13:31:27;99299.01;;;21.17;32.92
69221;BME280;56331;51.992;20.910;2023-02-02T13:34:04;99305.93;;;21.17;32.81
69221;BME280;56331;51.992;20.910;2023-02-02T13:36:25;99311.82;;;21.15;32.80
69221;BME280;56331;51.992;20.910;2023-02-02T13:38:57;99308.25;;;21.15;32.83
69221;BME280;56331;51.992;20.910;2023-02-02T13:41:26;99324.28;;;21.15;32.80
69221;BME280;56331;51.992;20.910;2023-02-02T13:44:03;99311.82;;;21.15;32.76
69221;BME280;56331;51.992;20.910;2023-02-02T13:46:51;99325.31;;;21.17;32.78
69221;BME280;56331;51.992;20.910;2023-02-02T13:49:22;99332.00;;;21.16;32.75
69221;BME280;56331;51.992;20.910;2023-02-02T13:55:01;99346.09;;;21.17;32.75
69221;BME280;56331;51.992;20.910;2023-02-02T14:02:50;99351.18;;;21.15;32.67
69221;BME280;56331;51.992;20.910;2023-02-02T14:05:30;99351.97;;;21.15;32.80
69221;BME280;56331;51.992;20.910;2023-02-02T14:10:55;99373.55;;;21.16;32.79
69221;BME280;56331;51.992;20.910;2023-02-02T14:24:48;99380.02;;;21.14;32.74
69221;BME280;56331;51.992;20.910;2023-02-02T14:48:41;99438.61;;;21.32;35.20
69221;BME280;56331;51.992;20.910;2023-02-02T14:54:26;99458.22;;;21.39;34.95
69221;BME280;56331;51.992;20.910;2023-02-02T14:56:46;99468.81;;;21.43;34.83
69221;BME280;56331;51.992;20.910;2023-02-02T14:59:21;99465.32;;;21.46;34.81
69221;BME280;56331;51.992;20.910;2023-02-02T15:04:28;99489.02;;;21.53;34.73
69221;BME280;56331;51.992;20.910;2023-02-02T15:06:55;99496.99;;;21.55;35.39
69221;BME280;56331;51.992;20.910;2023-02-02T15:20:26;99524.30;;;21.62;35.97
69221;BME280;56331;51.992;20.910;2023-02-02T15:26:00;99532.27;;;21.64;36.18
69221;BME280;56331;51.992;20.910;2023-02-02T15:28:58;99537.22;;;21.65;36.20
69221;BME280;56331;51.992;20.910;2023-02-02T15:31:46;99546.34;;;21.65;36.31
69221;BME280;56331;51.992;20.910;2023-02-02T15:34:24;99557.29;;;21.68;36.36
69221;BME280;56331;51.992;20.910;2023-02-02T15:36:54;99558.67;;;21.68;36.46
69221;BME280;56331;51.992;20.910;2023-02-02T15:39:28;99574.00;;;21.71;36.47